createdAt,value
2023-03-05T00:01:18.366Z,74.19
2023-03-05T00:03:45.951Z,74.10
2023-03-05T00:06:12.812Z,74.34
2023-03-05T00:08:40.399Z,74.74
2023-03-05T00:11:11.273Z,74.20
2023-03-05T00:13:39.232Z,74.35
2023-03-05T00:16:09.806Z,74.53
2023-03-05T00:18:37.505Z,74.44
2023-03-05T00:21:06.427Z,73.86
2023-03-05T00:23:33.245Z,73.98
2023-03-05T00:26:03.736Z,74.25
2023-03-05T00:28:30.517Z,74.29
2023-03-05T00:31:01.444Z,74.76
2023-03-05T00:33:28.562Z,74.25
2023-03-05T00:35:55.522Z,74.49
2023-03-05T00:38:22.334Z,74.79
2023-03-05T00:40:51.417Z,74.42
2023-03-05T00:43:18.287Z,74.06
2023-03-05T00:45:45.010Z,74.69
2023-03-05T00:48:12.451Z,74.64
2023-03-05T00:50:39.243Z,74.57
2023-03-05T00:53:06.038Z,74.49
2023-03-05T00:55:33.086Z,74.44
2023-03-05T00:57:59.851Z,75.14
2023-03-05T01:00:26.607Z,75.08
2023-03-05T01:02:53.504Z,74.82
2023-03-05T01:05:20.718Z,75.22
2023-03-05T01:07:47.561Z,75.11
2023-03-05T01:10:14.383Z,75.90
2023-03-05T01:12:41.259Z,75.68
2023-03-05T01:15:08.284Z,75.72
2023-03-05T01:17:35.085Z,76.18
2023-03-05T01:20:02.173Z,75.60
2023-03-05T01:22:29.042Z,75.65
2023-03-05T01:24:55.974Z,75.63
2023-03-05T01:27:23.383Z,75.17
2023-03-05T01:29:50.068Z,75.33
2023-03-05T01:32:17.234Z,75.06
2023-03-05T01:34:44.290Z,74.67
2023-03-05T01:37:11.023Z,74.64
2023-03-05T01:39:37.723Z,74.55
2023-03-05T01:42:05.391Z,75.10
2023-03-05T01:44:34.392Z,75.25
2023-03-05T01:47:03.818Z,74.94
2023-03-05T01:49:40.296Z,75.28
2023-03-05T01:52:23.462Z,75.31
2023-03-05T01:54:56.492Z,76.08
2023-03-05T01:57:38.209Z,76.17
2023-03-05T02:00:24.832Z,75.73
2023-03-05T02:02:52.540Z,75.60
2023-03-05T02:05:33.975Z,76.05
2023-03-05T02:08:10.113Z,75.59
2023-03-05T02:10:41.054Z,76.07
2023-03-05T02:13:19.582Z,75.94
2023-03-05T02:15:47.726Z,76.29
2023-03-05T02:18:16.616Z,76.22
2023-03-05T02:20:57.609Z,75.81
2023-03-05T02:23:28.531Z,75.17
2023-03-05T02:25:56.356Z,74.97
2023-03-05T02:28:31.862Z,75.64
2023-03-05T02:30:59.899Z,75.44
2023-03-05T02:33:27.121Z,75.25
2023-03-05T02:35:55.112Z,74.87
2023-03-05T02:38:24.311Z,74.65
2023-03-05T02:40:52.459Z,75.30
2023-03-05T02:43:19.298Z,75.35
2023-03-05T02:45:46.205Z,75.65
2023-03-05T02:48:14.583Z,75.60
2023-03-05T02:50:42.169Z,75.30
2023-03-05T02:53:10.010Z,75.35
2023-03-05T02:55:39.001Z,74.86
2023-03-05T02:58:05.832Z,75.07
2023-03-05T03:00:32.812Z,75.54
2023-03-05T03:03:04.396Z,75.37
2023-03-05T03:05:32.125Z,75.50
2023-03-05T03:08:09.397Z,75.69
2023-03-05T03:10:36.809Z,75.53
2023-03-05T03:13:06.100Z,76.10
2023-03-05T03:15:32.903Z,75.85
2023-03-05T03:18:00.437Z,75.78
2023-03-05T03:20:33.434Z,75.90
2023-03-05T03:23:00.999Z,76.03
2023-03-05T03:25:28.168Z,76.45
2023-03-05T03:27:56.051Z,76.73
2023-03-05T03:30:22.819Z,77.45
2023-03-05T03:32:52.666Z,77.74
2023-03-05T03:35:20.690Z,77.69
2023-03-05T03:37:50.835Z,78.72
2023-03-05T03:40:17.754Z,79.16
2023-03-05T03:42:44.637Z,79.02
2023-03-05T03:45:14.053Z,79.93
2023-03-05T03:47:40.760Z,79.29
2023-03-05T03:50:08.592Z,79.33
2023-03-05T03:52:35.454Z,79.37
2023-03-05T03:55:02.374Z,79.76
2023-03-05T03:57:35.845Z,79.08
2023-03-05T04:00:06.904Z,79.41
2023-03-05T04:02:39.183Z,79.84
2023-03-05T04:05:07.027Z,79.64
2023-03-05T04:07:33.812Z,79.87
2023-03-05T04:10:00.723Z,79.83
2023-03-05T04:12:27.592Z,79.71
2023-03-05T04:14:54.391Z,79.16
2023-03-05T04:17:21.196Z,79.56
2023-03-05T04:19:48.061Z,79.79
2023-03-05T04:22:16.813Z,79.56
2023-03-05T04:24:44.386Z,79.62
2023-03-05T04:27:11.989Z,79.51
2023-03-05T04:29:39.004Z,79.79
2023-03-05T04:32:06.868Z,79.98
2023-03-05T04:34:34.091Z,79.57
2023-03-05T04:37:01.163Z,80.27
2023-03-05T04:39:28.047Z,79.69
2023-03-05T04:41:54.878Z,79.48
2023-03-05T04:44:23.311Z,79.35
2023-03-05T04:46:50.538Z,79.53
2023-03-05T04:49:19.716Z,80.11
2023-03-05T04:51:46.504Z,79.81
2023-03-05T04:54:13.220Z,79.58
2023-03-05T04:56:40.053Z,79.40
2023-03-05T04:59:06.925Z,79.46
2023-03-05T05:01:35.394Z,78.86
2023-03-05T05:04:02.830Z,79.68
2023-03-05T05:06:29.694Z,79.16
2023-03-05T05:08:56.538Z,79.35
2023-03-05T05:11:23.366Z,80.16
2023-03-05T05:13:50.193Z,79.58
2023-03-05T05:16:17.333Z,79.42
2023-03-05T05:18:46.686Z,79.34
2023-03-05T05:21:15.160Z,79.32
2023-03-05T05:23:42.152Z,79.76
2023-03-05T05:26:14.414Z,79.32
2023-03-05T05:28:43.488Z,79.58
2023-03-05T05:31:14.179Z,79.46
2023-03-05T05:33:42.408Z,79.96
2023-03-05T05:36:16.406Z,79.99
2023-03-05T05:38:43.398Z,79.89
2023-03-05T05:41:17.244Z,79.98
2023-03-05T05:43:44.838Z,79.72
2023-03-05T05:46:16.589Z,79.66
2023-03-05T05:48:44.357Z,79.89
2023-03-05T05:51:16.454Z,79.84
2023-03-05T05:53:44.461Z,79.64
2023-03-05T05:56:12.667Z,79.63
2023-03-05T05:58:44.030Z,79.77
2023-03-05T06:01:26.409Z,78.88
2023-03-05T06:03:53.236Z,78.94
2023-03-05T06:06:23.115Z,78.76
2023-03-05T06:08:51.528Z,78.53
2023-03-05T06:11:19.906Z,78.70
2023-03-05T06:13:48.836Z,78.76
2023-03-05T06:16:20.450Z,78.77
2023-03-05T06:18:47.810Z,78.41
2023-03-05T06:21:17.695Z,78.60
2023-03-05T06:23:46.615Z,78.84
2023-03-05T06:26:17.423Z,77.73
2023-03-05T06:28:44.507Z,77.79
2023-03-05T06:31:17.463Z,77.76
2023-03-05T06:33:45.532Z,77.58
2023-03-05T06:36:15.381Z,77.85
2023-03-05T06:38:44.766Z,78.04
2023-03-05T06:41:17.235Z,77.00
2023-03-05T06:43:46.614Z,77.51
2023-03-05T06:46:17.669Z,77.54
2023-03-05T06:48:46.562Z,76.90
2023-03-05T06:51:32.078Z,76.77
2023-03-05T06:54:07.390Z,77.20
2023-03-05T06:56:37.165Z,77.38
2023-03-05T06:59:05.261Z,77.55
2023-03-05T07:01:32.262Z,77.62
2023-03-05T07:04:00.385Z,77.65
2023-03-05T07:06:27.807Z,77.02
2023-03-05T07:08:56.448Z,77.69
2023-03-05T07:11:24.283Z,77.34
2023-03-05T07:13:51.757Z,77.49
2023-03-05T07:16:26.563Z,77.95
2023-03-05T07:18:56.184Z,77.39
2023-03-05T07:21:30.168Z,78.09
2023-03-05T07:23:59.887Z,77.46
2023-03-05T07:26:27.529Z,77.89
2023-03-05T07:28:55.191Z,78.44
2023-03-05T07:31:27.550Z,78.93
2023-03-05T07:33:54.616Z,78.39
2023-03-05T07:36:21.552Z,78.40
2023-03-05T07:38:48.407Z,78.58
2023-03-05T07:41:23.384Z,78.45
2023-03-05T07:43:53.708Z,78.90
2023-03-05T07:46:25.281Z,78.83
2023-03-05T07:48:54.594Z,78.73
2023-03-05T07:51:22.628Z,78.98
2023-03-05T07:53:51.888Z,78.42
2023-03-05T07:56:25.769Z,78.73
2023-03-05T07:58:53.460Z,78.67
2023-03-05T08:01:23.325Z,77.87
2023-03-05T08:03:50.330Z,78.05
2023-03-05T08:06:17.317Z,78.01
2023-03-05T08:08:44.150Z,78.37
2023-03-05T08:11:14.206Z,78.68
2023-03-05T08:13:41.810Z,78.14
2023-03-05T08:16:13.078Z,78.21
2023-03-05T08:18:40.176Z,78.13
2023-03-05T08:21:07.199Z,77.77
2023-03-05T08:23:34.522Z,77.88
2023-03-05T08:26:01.268Z,77.81
2023-03-05T08:28:28.054Z,77.73
2023-03-05T08:30:54.823Z,77.92
2023-03-05T08:33:21.636Z,77.25
2023-03-05T08:35:48.737Z,77.52
2023-03-05T08:38:15.537Z,77.40
2023-03-05T08:40:43.197Z,78.07
2023-03-05T08:43:09.849Z,77.55
2023-03-05T08:45:36.681Z,77.50
2023-03-05T08:48:07.133Z,76.61
2023-03-05T08:50:38.872Z,76.49
2023-03-05T08:53:06.649Z,76.28
2023-03-05T08:55:34.337Z,75.38
2023-03-05T08:58:01.035Z,74.28
2023-03-05T09:00:27.746Z,74.03
2023-03-05T09:02:54.492Z,74.15
2023-03-05T09:05:21.203Z,73.70
2023-03-05T09:07:48.003Z,73.41
2023-03-05T09:10:14.950Z,73.57
2023-03-05T09:12:42.414Z,73.11
2023-03-05T09:15:11.484Z,72.62
2023-03-05T09:17:41.685Z,71.92
2023-03-05T09:20:13.017Z,71.61
2023-03-05T09:22:40.598Z,72.83
2023-03-05T09:25:10.530Z,73.92
2023-03-05T09:27:38.567Z,74.40
2023-03-05T09:30:07.207Z,73.97
2023-03-05T09:32:34.299Z,73.52
2023-03-05T09:35:01.142Z,73.14
2023-03-05T09:37:29.351Z,74.00
2023-03-05T09:39:57.458Z,73.78
2023-03-05T09:42:48.303Z,74.31
2023-03-05T09:46:25.140Z,76.11
2023-03-05T09:49:47.880Z,77.92
2023-03-05T09:52:46.597Z,78.23
2023-03-05T09:55:33.917Z,78.23
2023-03-05T09:58:17.194Z,78.25
2023-03-05T10:01:17.814Z,77.23
2023-03-05T10:04:06.608Z,77.37
2023-03-05T10:06:50.490Z,77.38
2023-03-05T10:09:47.427Z,76.64
2023-03-05T10:12:24.587Z,75.72
2023-03-05T10:14:51.369Z,75.74
2023-03-05T10:17:58.736Z,75.18
2023-03-05T10:20:51.337Z,75.07
2023-03-05T10:23:42.695Z,75.13
2023-03-05T10:26:24.624Z,75.76
2023-03-05T10:29:22.338Z,75.81
2023-03-05T10:32:42.618Z,74.99
2023-03-05T10:35:14.732Z,74.92
2023-03-05T10:38:03.595Z,73.83
2023-03-05T10:40:41.123Z,73.74
2023-03-05T10:43:58.227Z,73.73
2023-03-05T10:46:38.743Z,72.58
2023-03-05T10:49:20.959Z,73.34
2023-03-05T10:51:56.695Z,72.98
2023-03-05T10:54:35.755Z,72.50
2023-03-05T10:57:27.960Z,71.54
2023-03-05T11:00:13.195Z,70.01
2023-03-05T11:03:06.257Z,71.21
2023-03-05T11:05:39.185Z,71.15
2023-03-05T11:08:25.776Z,70.49
2023-03-05T11:11:15.047Z,71.07
2023-03-05T11:14:04.308Z,72.70
2023-03-05T11:16:48.051Z,71.32
2023-03-05T11:19:32.799Z,70.90
2023-03-05T11:22:21.212Z,71.56
2023-03-05T11:25:22.738Z,72.58
2023-03-05T11:27:55.270Z,72.51
2023-03-05T11:30:28.733Z,71.65
2023-03-05T11:33:22.546Z,70.49
2023-03-05T11:36:15.907Z,71.80
2023-03-05T11:39:00.744Z,72.01
2023-03-05T11:41:31.964Z,71.91
2023-03-05T11:44:03.785Z,71.53
2023-03-05T11:46:41.536Z,72.32
2023-03-05T11:49:16.887Z,72.66
2023-03-05T11:51:59.929Z,73.37
2023-03-05T11:54:36.901Z,75.81
2023-03-05T11:57:04.541Z,77.09
2023-03-05T11:59:36.118Z,78.01
2023-03-05T12:02:03.747Z,77.22
2023-03-05T12:04:34.446Z,77.45
2023-03-05T12:07:03.894Z,78.36
2023-03-05T12:09:49.524Z,77.23
2023-03-05T12:12:37.970Z,76.66
2023-03-05T12:15:26.328Z,76.96
2023-03-05T12:18:35.028Z,75.88
2023-03-05T12:21:41.896Z,75.34
2023-03-05T12:24:25.506Z,75.43
2023-03-05T12:26:56.087Z,73.93
2023-03-05T12:29:51.314Z,73.98
2023-03-05T12:32:31.480Z,74.17
2023-03-05T12:35:23.295Z,73.80
2023-03-05T12:37:50.134Z,74.08
2023-03-05T12:40:35.465Z,72.38
2023-03-05T12:43:03.907Z,70.27
2023-03-05T12:45:39.699Z,70.06
2023-03-05T12:48:11.820Z,69.79
2023-03-05T12:50:38.528Z,69.26
2023-03-05T12:53:11.160Z,68.69
2023-03-05T12:55:45.751Z,69.04
2023-03-05T12:58:17.832Z,68.66
2023-03-05T13:01:07.303Z,68.29
2023-03-05T13:03:49.954Z,68.16
2023-03-05T13:06:35.094Z,67.60
2023-03-05T13:09:18.731Z,66.93
2023-03-05T13:11:50.639Z,65.77
2023-03-05T13:14:37.449Z,64.95
2023-03-05T13:17:30.268Z,66.51
2023-03-05T13:19:59.154Z,65.35
2023-03-05T13:22:26.474Z,65.22
2023-03-05T13:25:20.651Z,65.35
2023-03-05T13:27:47.478Z,65.66
2023-03-05T13:30:29.295Z,65.92
2023-03-05T13:33:05.749Z,65.68
2023-03-05T13:35:34.048Z,65.31
2023-03-05T13:38:02.120Z,65.59
2023-03-05T13:40:32.249Z,65.35
2023-03-05T13:43:19.778Z,65.66
2023-03-05T13:45:56.415Z,66.25
2023-03-05T13:48:23.474Z,66.32
2023-03-05T13:50:58.730Z,66.44
2023-03-05T13:53:30.534Z,66.63
2023-03-05T13:56:04.908Z,67.63
2023-03-05T13:58:54.909Z,66.39
2023-03-05T14:01:33.307Z,65.86
2023-03-05T14:04:23.098Z,67.79
2023-03-05T14:07:07.586Z,68.16
2023-03-05T14:09:37.452Z,67.73
2023-03-05T14:12:06.858Z,67.35
2023-03-05T14:14:37.804Z,67.87
2023-03-05T14:17:28.418Z,67.09
2023-03-05T14:20:30.152Z,67.07
2023-03-05T14:23:00.756Z,66.70
2023-03-05T14:25:37.657Z,67.20
2023-03-05T14:28:21.401Z,67.28
2023-03-05T14:30:52.582Z,68.24
2023-03-05T14:33:28.708Z,68.44
2023-03-05T14:35:57.748Z,69.25
2023-03-05T14:38:30.719Z,69.56
2023-03-05T14:40:57.809Z,70.80
2023-03-05T14:43:24.553Z,71.04
2023-03-05T14:45:51.380Z,71.76
2023-03-05T14:48:19.017Z,72.69
2023-03-05T14:50:56.783Z,73.50
2023-03-05T14:53:35.373Z,73.14
2023-03-05T14:56:02.333Z,73.30
2023-03-05T14:58:35.629Z,73.08
2023-03-05T15:01:02.802Z,72.62
2023-03-05T15:03:29.691Z,72.29
2023-03-05T15:05:58.852Z,72.14
2023-03-05T15:08:29.986Z,72.56
2023-03-05T15:10:57.972Z,72.75
2023-03-05T15:13:25.144Z,72.71
2023-03-05T15:15:53.659Z,72.89
2023-03-05T15:18:22.832Z,73.38
2023-03-05T15:20:52.907Z,73.70
2023-03-05T15:23:20.179Z,74.50
2023-03-05T15:25:47.075Z,74.93
2023-03-05T15:28:13.862Z,74.80
2023-03-05T15:30:47.013Z,75.06
2023-03-05T15:33:17.126Z,74.67
2023-03-05T15:35:44.960Z,74.29
2023-03-05T15:38:11.915Z,74.77
2023-03-05T15:40:38.828Z,74.20
2023-03-05T15:43:05.702Z,74.03
2023-03-05T15:45:32.642Z,74.61
2023-03-05T15:47:59.656Z,73.39
2023-03-05T15:50:26.626Z,74.17
2023-03-05T15:52:53.852Z,74.34
2023-03-05T15:55:21.393Z,73.56
2023-03-05T15:57:50.928Z,74.05
2023-03-05T16:00:25.755Z,73.54
2023-03-05T16:02:54.000Z,73.42
2023-03-05T16:05:21.017Z,73.78
2023-03-05T16:07:51.851Z,73.46
2023-03-05T16:10:23.099Z,72.78
2023-03-05T16:12:54.618Z,72.97
2023-03-05T16:15:22.605Z,73.64
2023-03-05T16:17:54.959Z,72.84
2023-03-05T16:20:22.527Z,72.84
2023-03-05T16:22:49.781Z,72.63
2023-03-05T16:25:17.004Z,72.63
2023-03-05T16:27:43.792Z,73.35
2023-03-05T16:30:11.622Z,73.50
2023-03-05T16:32:38.916Z,72.97
2023-03-05T16:35:06.718Z,73.56
2023-03-05T16:37:33.622Z,73.76
2023-03-05T16:40:00.493Z,73.84
2023-03-05T16:42:27.294Z,73.73
2023-03-05T16:44:54.205Z,73.92
2023-03-05T16:47:21.114Z,74.45
2023-03-05T16:49:47.916Z,74.38
2023-03-05T16:52:19.226Z,74.44
2023-03-05T16:54:47.198Z,74.64
2023-03-05T16:57:14.668Z,74.81
2023-03-05T16:59:43.493Z,74.85
2023-03-05T17:02:12.674Z,74.64
2023-03-05T17:04:39.408Z,75.18
2023-03-05T17:07:06.884Z,74.62
2023-03-05T17:09:33.726Z,74.82
2023-03-05T17:12:00.862Z,75.20
2023-03-05T17:14:28.079Z,74.89
2023-03-05T17:16:54.821Z,75.23
2023-03-05T17:19:21.591Z,74.76
2023-03-05T17:21:51.152Z,75.16
2023-03-05T17:24:20.835Z,75.41
2023-03-05T17:26:50.031Z,75.15
2023-03-05T17:29:18.916Z,75.94
2023-03-05T17:31:46.733Z,75.74
2023-03-05T17:34:14.285Z,75.81
2023-03-05T17:36:41.061Z,76.04
2023-03-05T17:39:08.738Z,76.10
2023-03-05T17:41:35.656Z,75.86
2023-03-05T17:44:02.442Z,75.72
2023-03-05T17:46:29.375Z,75.67
2023-03-05T17:48:56.146Z,75.60
2023-03-05T17:51:22.967Z,75.76
2023-03-05T17:53:49.779Z,75.82
2023-03-05T17:56:17.396Z,75.35
2023-03-05T17:58:44.386Z,76.17
2023-03-05T18:01:11.392Z,76.52
2023-03-05T18:03:39.015Z,76.58
2023-03-05T18:06:06.152Z,76.59
2023-03-05T18:08:32.886Z,76.69
2023-03-05T18:10:59.765Z,76.25
2023-03-05T18:13:26.615Z,76.48
2023-03-05T18:15:53.811Z,76.93
2023-03-05T18:18:20.661Z,76.90
2023-03-05T18:20:48.724Z,76.90
2023-03-05T18:23:16.279Z,76.29
2023-03-05T18:25:44.325Z,76.51
2023-03-05T18:28:13.982Z,76.59
2023-03-05T18:30:42.736Z,75.89
2023-03-05T18:33:18.823Z,75.78
2023-03-05T18:35:46.151Z,75.98
2023-03-05T18:38:12.873Z,75.76
2023-03-05T18:40:48.052Z,76.09
2023-03-05T18:43:17.141Z,75.72
2023-03-05T18:45:44.470Z,75.82
2023-03-05T18:48:12.401Z,75.89
2023-03-05T18:50:39.135Z,75.62
2023-03-05T18:53:05.863Z,75.77
2023-03-05T18:55:32.920Z,75.78
2023-03-05T18:58:00.008Z,75.50
2023-03-05T19:00:30.527Z,75.68
2023-03-05T19:02:58.159Z,76.12
2023-03-05T19:05:26.709Z,75.95
2023-03-05T19:07:54.850Z,75.96
2023-03-05T19:10:22.695Z,75.86
2023-03-05T19:12:56.844Z,75.64
2023-03-05T19:15:24.145Z,75.48
2023-03-05T19:17:51.917Z,75.75
2023-03-05T19:20:18.831Z,76.14
2023-03-05T19:22:45.606Z,76.82
2023-03-05T19:25:12.819Z,76.27
2023-03-05T19:27:40.377Z,76.21
2023-03-05T19:30:08.392Z,76.08
2023-03-05T19:32:35.316Z,76.37
2023-03-05T19:35:02.579Z,76.83
2023-03-05T19:37:39.552Z,77.21
2023-03-05T19:40:07.542Z,76.59
2023-03-05T19:42:36.256Z,77.01
2023-03-05T19:45:03.170Z,76.86
2023-03-05T19:47:30.050Z,77.21
2023-03-05T19:49:56.884Z,76.86
2023-03-05T19:52:23.640Z,77.45
2023-03-05T19:54:50.447Z,77.28
2023-03-05T19:57:17.314Z,77.01
2023-03-05T19:59:46.095Z,77.23
2023-03-05T20:02:19.340Z,77.51
2023-03-05T20:04:46.897Z,77.52
2023-03-05T20:07:13.910Z,77.21
2023-03-05T20:09:40.815Z,77.79
2023-03-05T20:12:07.999Z,77.44
2023-03-05T20:14:34.830Z,77.83
2023-03-05T20:17:01.508Z,77.83
2023-03-05T20:19:28.255Z,77.69
2023-03-05T20:21:54.974Z,78.12
2023-03-05T20:24:40.163Z,78.58
2023-03-05T20:27:07.207Z,78.40
2023-03-05T20:29:33.914Z,79.00
2023-03-05T20:32:00.796Z,78.70
2023-03-05T20:34:27.557Z,78.92
2023-03-05T20:36:54.340Z,79.21
2023-03-05T20:39:21.184Z,79.89
2023-03-05T20:41:48.549Z,79.41
2023-03-05T20:44:16.531Z,80.03
2023-03-05T20:46:53.013Z,79.88
2023-03-05T20:49:20.487Z,80.34
2023-03-05T20:51:50.642Z,80.09
2023-03-05T20:54:17.544Z,80.33
2023-03-05T20:56:44.510Z,80.09
2023-03-05T20:59:11.703Z,80.03
2023-03-05T21:01:40.404Z,80.30
2023-03-05T21:04:07.607Z,80.79
2023-03-05T21:06:35.166Z,80.82
2023-03-05T21:09:02.541Z,80.96
2023-03-05T21:11:29.452Z,80.99
2023-03-05T21:13:56.283Z,80.89
2023-03-05T21:16:26.102Z,80.74
2023-03-05T21:18:53.405Z,80.73
2023-03-05T21:21:20.489Z,80.75
2023-03-05T21:23:47.925Z,81.10
2023-03-05T21:26:15.721Z,81.08
2023-03-05T21:28:42.683Z,81.19
2023-03-05T21:31:16.720Z,81.39
2023-03-05T21:33:43.696Z,81.03
2023-03-05T21:36:10.952Z,81.05
2023-03-05T21:38:37.764Z,81.63
2023-03-05T21:41:05.657Z,81.22
2023-03-05T21:43:33.585Z,81.53
2023-03-05T21:46:03.030Z,80.91
2023-03-05T21:48:30.954Z,81.19
2023-03-05T21:50:58.582Z,80.90
2023-03-05T21:53:26.290Z,80.89
2023-03-05T21:56:15.460Z,80.96
2023-03-05T21:58:42.362Z,80.72
2023-03-05T22:01:12.089Z,81.17
2023-03-05T22:03:39.352Z,81.80
2023-03-05T22:06:18.689Z,81.63
2023-03-05T22:08:45.922Z,82.05
2023-03-05T22:11:17.373Z,81.60
2023-03-05T22:13:44.702Z,81.73
2023-03-05T22:16:12.005Z,81.48
2023-03-05T22:18:38.976Z,81.90
2023-03-05T22:21:05.911Z,81.95
2023-03-05T22:23:36.710Z,81.83
2023-03-05T22:26:07.987Z,81.74
2023-03-05T22:28:38.817Z,81.62
2023-03-05T22:31:06.281Z,82.24
2023-03-05T22:33:33.032Z,82.36
2023-03-05T22:36:00.280Z,82.35
2023-03-05T22:38:27.094Z,82.84
2023-03-05T22:40:53.870Z,81.89
2023-03-05T22:43:20.852Z,82.52
2023-03-05T22:45:48.079Z,82.94
2023-03-05T22:48:15.458Z,82.94
2023-03-05T22:50:44.029Z,83.28
2023-03-05T22:53:11.401Z,83.52
2023-03-05T22:55:42.671Z,83.68
2023-03-05T22:58:09.718Z,84.19
2023-03-05T23:00:36.934Z,84.25
2023-03-05T23:03:03.878Z,84.24
2023-03-05T23:05:30.697Z,84.90
2023-03-05T23:07:57.567Z,84.70
2023-03-05T23:10:28.477Z,84.32
2023-03-05T23:12:58.231Z,84.33
2023-03-05T23:15:34.857Z,84.53
2023-03-05T23:18:03.007Z,84.59
2023-03-05T23:20:34.862Z,84.33
2023-03-05T23:23:03.299Z,84.46
2023-03-05T23:25:32.869Z,84.81
2023-03-05T23:28:00.944Z,84.76
2023-03-05T23:30:30.411Z,84.65
2023-03-05T23:33:19.704Z,84.88
2023-03-05T23:35:56.643Z,84.90
2023-03-05T23:38:25.202Z,85.31
2023-03-05T23:40:55.748Z,84.75
2023-03-05T23:43:25.137Z,84.61
2023-03-05T23:45:54.915Z,84.76
2023-03-05T23:48:24.555Z,84.68
2023-03-05T23:50:51.454Z,85.03
2023-03-05T23:53:25.770Z,84.83
2023-03-05T23:55:53.483Z,84.80
2023-03-05T23:58:21.478Z,84.93
